Time;durP1;ratioP1;P1;durP2;ratioP2;P2;SDS_P1;SDS_P2;PMS_P1;PMS_P2;Temp;Humidity;BMP_temperature;BMP_pressure;BME280_temperature;BME280_humidity;BME280_pressure;Samples;Min_cycle;Max_cycle;Signal;HPM_P1;HPM_P2
2023/05/28 00:01:48;;;;;;;6.47;3.90;;;;;;;26.19;40.00;99877.09;4260532;33;33578;-63
2023/05/28 00:04:16;;;;;;;7.22;3.72;;;;;;;26.19;40.03;99874.34;4260466;33;33888;-64
2023/05/28 00:06:43;;;;;;;7.72;3.45;;;;;;;26.19;40.04;99868.06;4260169;33;34888;-64
2023/05/28 00:09:12;;;;;;;7.80;3.75;;;;;;;26.18;40.00;99875.44;4260489;33;34456;-64
2023/05/28 00:11:40;;;;;;;6.82;3.80;;;;;;;26.18;40.07;99867.22;4260458;33;33593;-64
2023/05/28 00:14:07;;;;;;;7.70;3.60;;;;;;;26.18;40.04;99866.41;4258768;33;33881;-64
2023/05/28 00:16:35;;;;;;;9.90;4.05;;;;;;;26.18;39.95;99869.13;4260347;33;34748;-64
2023/05/28 00:19:03;;;;;;;7.78;3.75;;;;;;;26.18;39.84;99871.87;4260297;33;34174;-63
2023/05/28 00:21:33;;;;;;;10.18;4.40;;;;;;;26.17;39.84;99867.47;4270771;33;34382;-63
2023/05/28 00:24:00;;;;;;;10.00;4.37;;;;;;;26.16;39.90;99866.66;4274009;33;33735;-63
2023/05/28 00:26:28;;;;;;;8.10;4.07;;;;;;;26.16;39.96;99863.91;4274537;33;33910;-63
2023/05/28 00:28:57;;;;;;;8.90;4.27;;;;;;;26.16;39.99;99858.44;4261721;33;34456;-63
2023/05/28 00:31:25;;;;;;;6.78;3.90;;;;;;;26.17;39.99;99862.00;4274827;33;34361;-64
2023/05/28 00:33:52;;;;;;;6.57;3.92;;;;;;;26.17;40.02;99862.84;4274624;33;34196;-63
2023/05/28 00:36:20;;;;;;;8.65;3.97;;;;;;;26.16;40.02;99852.97;4274683;33;33752;-64
2023/05/28 00:38:48;;;;;;;8.35;4.00;;;;;;;26.15;40.00;99854.03;4274570;33;34990;-63
2023/05/28 00:41:23;;;;;;;6.75;3.80;;;;;;;26.16;39.93;99855.72;4261978;33;33569;-63
2023/05/28 00:43:51;;;;;;;9.93;3.80;;;;;;;26.17;39.85;99856.53;4274564;33;34644;-63
2023/05/28 00:46:20;;;;;;;8.32;4.20;;;;;;;26.15;39.80;99854.03;4249938;33;34914;-64
2023/05/28 00:48:48;;;;;;;7.95;3.45;;;;;;;26.15;39.69;99851.28;4250205;33;33860;-64
2023/05/28 00:51:15;;;;;;;7.60;3.87;;;;;;;26.15;39.72;99842.25;4274545;33;33338;-64
2023/05/28 00:53:44;;;;;;;8.00;4.05;;;;;;;26.15;39.79;99847.72;4261958;33;34800;-64
2023/05/28 00:56:11;;;;;;;9.23;4.28;;;;;;;26.14;39.75;99844.16;4274172;33;33796;-63
2023/05/28 00:58:42;;;;;;;10.95;4.70;;;;;;;26.14;39.60;99835.13;4261443;33;34076;-63
2023/05/28 01:01:09;;;;;;;6.72;3.58;;;;;;;26.13;39.61;99834.31;4273885;33;33895;-63
2023/05/28 01:03:38;;;;;;;12.18;4.32;;;;;;;26.13;39.62;99830.75;4274257;33;33915;-63
2023/05/28 01:06:11;;;;;;;10.40;4.05;;;;;;;26.12;39.51;99829.91;4274296;33;34937;-63
2023/05/28 01:08:39;;;;;;;6.57;3.65;;;;;;;26.12;39.56;99829.09;4261556;33;34106;-64
2023/05/28 01:11:10;;;;;;;6.12;3.95;;;;;;;26.12;39.50;99835.38;4261214;33;33752;-64
2023/05/28 01:13:39;;;;;;;7.12;3.90;;;;;;;26.10;39.38;99823.84;4261538;33;33927;-63
2023/05/28 01:16:08;;;;;;;8.30;3.55;;;;;;;26.10;39.37;99829.31;4249794;33;34035;-63
2023/05/28 01:18:39;;;;;;;8.15;3.58;;;;;;;26.10;39.35;99815.66;4274340;33;34004;-63
2023/05/28 01:21:07;;;;;;;6.20;3.65;;;;;;;26.10;39.30;99823.84;4261693;33;34302;-64
2023/05/28 01:23:44;;;;;;;7.57;3.72;;;;;;;26.09;39.26;99819.47;4258564;33;33519;-64
2023/05/28 01:26:12;;;;;;;7.07;3.50;;;;;;;26.10;39.26;99818.37;4247101;33;33999;-64
2023/05/28 01:28:44;;;;;;;7.00;3.58;;;;;;;26.09;39.17;99815.91;4247100;33;34799;-63
2023/05/28 01:31:12;;;;;;;7.20;4.25;;;;;;;26.07;39.20;99810.69;4260263;33;33761;-63
2023/05/28 01:33:41;;;;;;;10.20;4.10;;;;;;;26.07;39.13;99815.31;4260102;33;34373;-63
2023/05/28 01:36:31;;;;;;;7.22;3.85;;;;;;;26.06;39.12;99819.94;4258551;33;33880;-63
2023/05/28 01:39:01;;;;;;;7.55;3.85;;;;;;;26.09;39.04;99807.69;4247350;33;34182;-63
2023/05/28 01:41:30;;;;;;;9.13;3.42;;;;;;;26.06;39.01;99808.16;4258536;33;33750;-64
2023/05/28 01:43:58;;;;;;;7.28;3.80;;;;;;;26.05;38.98;99815.53;4247247;33;34855;-63
2023/05/28 01:46:26;;;;;;;6.43;3.40;;;;;;;26.04;38.94;99815.81;4258595;33;33749;-64
2023/05/28 01:48:54;;;;;;;7.20;3.60;;;;;;;26.04;38.92;99821.28;4258674;33;34324;-63
2023/05/28 01:51:22;;;;;;;8.07;3.90;;;;;;;26.04;38.94;99804.88;4259741;33;33348;-64
2023/05/28 01:53:50;;;;;;;7.60;3.55;;;;;;;26.03;38.91;99803.22;4259807;33;33728;-64
2023/05/28 01:56:18;;;;;;;6.18;3.55;;;;;;;26.03;38.94;99812.25;4259418;33;34803;-63
2023/05/28 01:58:45;;;;;;;7.05;3.85;;;;;;;26.03;38.96;99808.69;4259619;33;34223;-63
2023/05/28 02:01:32;;;;;;;8.88;3.80;;;;;;;26.02;38.94;99805.13;4259673;33;33661;-64
2023/05/28 02:04:01;;;;;;;7.43;3.65;;;;;;;26.03;38.90;99812.25;4258711;33;33909;-64
2023/05/28 02:06:33;;;;;;;7.97;3.92;;;;;;;26.01;38.86;99808.91;4259561;33;33895;-64
2023/05/28 02:09:01;;;;;;;6.65;3.78;;;;;;;26.01;38.87;99808.06;4259381;33;34349;-63
2023/05/28 02:11:28;;;;;;;8.32;4.05;;;;;;;26.00;38.87;99809.97;4259530;33;33556;-65
2023/05/28 02:13:56;;;;;;;6.70;3.80;;;;;;;26.00;38.75;99809.16;4260690;33;33820;-64
2023/05/28 02:16:24;;;;;;;6.90;4.12;;;;;;;25.99;38.76;99802.03;4261342;33;33799;-63
2023/05/28 02:18:54;;;;;;;5.22;3.33;;;;;;;25.99;38.74;99807.50;4261124;33;33697;-63
2023/05/28 02:21:22;;;;;;;8.35;4.15;;;;;;;25.99;38.74;99810.25;4261208;33;32898;-64
2023/05/28 02:23:50;;;;;;;8.20;4.07;;;;;;;25.98;38.72;99808.59;4273848;33;33960;-63
2023/05/28 02:26:18;;;;;;;7.03;3.90;;;;;;;25.98;38.72;99805.84;4275240;33;35075;-64
2023/05/28 02:28:45;;;;;;;7.62;3.85;;;;;;;25.97;38.68;99796.78;4275136;33;34899;-64
2023/05/28 02:31:14;;;;;;;6.60;3.60;;;;;;;25.97;38.72;99793.22;4275412;33;34456;-64
2023/05/28 02:33:44;;;;;;;;;;;;;;;25.97;38.71;99801.44;4275508;33;33870;-64
2023/05/28 02:36:12;;;;;;;7.90;3.70;;;;;;;26.07;38.49;99807.94;4275225;33;35090;-63
2023/05/28 02:38:40;;;;;;;5.93;3.75;;;;;;;25.99;38.52;99805.59;4275150;33;34330;-63
2023/05/28 02:41:09;;;;;;;6.37;3.47;;;;;;;25.95;38.61;99805.25;4250799;33;34669;-63
2023/05/28 02:43:37;;;;;;;6.47;3.58;;;;;;;25.95;38.57;99804.41;4275241;33;33999;-63
2023/05/28 02:46:05;;;;;;;7.72;4.10;;;;;;;25.95;38.54;99801.69;4275518;33;34402;-63
2023/05/28 02:48:32;;;;;;;7.50;4.22;;;;;;;25.94;38.49;99802.75;4275403;33;35006;-64
2023/05/28 02:51:00;;;;;;;6.55;3.83;;;;;;;25.93;38.49;99801.94;4275033;33;33763;-64
2023/05/28 02:53:31;;;;;;;7.50;3.80;;;;;;;25.95;38.45;99804.41;4275457;33;32672;-64
2023/05/28 02:55:58;;;;;;;6.65;3.53;;;;;;;25.95;38.46;99801.69;4275195;33;33971;-64
2023/05/28 02:58:28;;;;;;;6.37;3.70;;;;;;;25.94;38.41;99808.22;4275331;33;34944;-63
2023/05/28 03:00:56;;;;;;;7.20;3.85;;;;;;;25.92;38.39;99797.53;4275472;33;33503;-64
2023/05/28 03:03:24;;;;;;;8.07;4.05;;;;;;;25.93;38.37;99806.56;4275314;33;34646;-64
2023/05/28 03:05:52;;;;;;;7.50;3.70;;;;;;;25.93;38.40;99801.09;4275013;33;34658;-64
2023/05/28 03:08:21;;;;;;;6.85;3.90;;;;;;;25.92;38.38;99802.16;4275251;33;34186;-64
2023/05/28 03:10:49;;;;;;;7.25;3.40;;;;;;;25.91;38.37;99804.06;4274992;33;33563;-64
2023/05/28 03:13:16;;;;;;;7.53;3.55;;;;;;;25.90;38.29;99805.16;4275052;33;33761;-63
2023/05/28 03:15:44;;;;;;;7.22;3.85;;;;;;;25.90;38.28;99801.59;4275266;33;34869;-64
2023/05/28 03:18:12;;;;;;;8.25;3.90;;;;;;;25.89;38.24;99799.94;4274816;33;34758;-63
2023/05/28 03:20:39;;;;;;;7.82;3.67;;;;;;;25.89;38.24;99795.28;4274983;33;34451;-63
2023/05/28 03:23:07;;;;;;;6.85;3.97;;;;;;;25.89;38.20;99802.66;4266384;33;33998;-66
2023/05/28 03:25:38;;;;;;;5.90;3.35;;;;;;;25.87;38.41;99791.94;4259532;33;34659;-62
2023/05/28 03:28:05;;;;;;;7.28;4.35;;;;;;;25.87;38.49;99797.41;4260845;33;34972;-62
2023/05/28 03:30:34;;;;;;;13.60;3.97;;;;;;;25.89;38.49;99802.66;4260823;33;33743;-60
2023/05/28 03:33:02;;;;;;;8.55;4.18;;;;;;;25.89;38.52;99802.66;4260733;33;34616;-62
2023/05/28 03:35:30;;;;;;;6.78;3.58;;;;;;;25.89;38.55;99803.50;4260633;33;34024;-62
2023/05/28 03:37:57;;;;;;;7.82;4.03;;;;;;;25.88;38.60;99800.97;4260650;33;34249;-60
2023/05/28 03:40:25;;;;;;;7.18;3.80;;;;;;;25.88;38.65;99798.25;4260477;33;33543;-63
2023/05/28 03:42:52;;;;;;;7.78;3.50;;;;;;;25.89;38.66;99802.66;4260776;33;34713;-62
2023/05/28 03:45:20;;;;;;;9.25;3.62;;;;;;;25.90;38.66;99804.31;4260450;33;34038;-61
2023/05/28 03:47:48;;;;;;;8.05;3.90;;;;;;;25.90;38.67;99796.13;4260634;33;34870;-61
2023/05/28 03:50:15;;;;;;;7.55;4.00;;;;;;;25.90;38.67;99801.59;4260907;33;33791;-62
2023/05/28 03:52:43;;;;;;;7.05;3.90;;;;;;;25.91;38.69;99803.25;4260555;33;34727;-62
2023/05/28 03:55:11;;;;;;;7.70;4.43;;;;;;;25.89;38.70;99803.50;4260566;33;34652;-62
2023/05/28 03:57:39;;;;;;;7.57;4.07;;;;;;;25.89;38.69;99798.03;4260641;33;34007;-62
2023/05/28 04:00:08;;;;;;;9.93;3.58;;;;;;;25.90;38.68;99804.31;4260806;33;33636;-60
2023/05/28 04:02:42;;;;;;;8.20;4.32;;;;;;;25.92;38.67;99805.72;4260502;33;33706;-63
2023/05/28 04:05:11;;;;;;;9.05;4.00;;;;;;;25.91;38.66;99808.72;4260747;33;34341;-62
2023/05/28 04:07:38;;;;;;;6.90;3.80;;;;;;;25.91;38.66;99808.72;4259480;33;33949;-62
2023/05/28 04:10:06;;;;;;;7.32;3.72;;;;;;;25.90;38.67;99799.69;4260777;33;34304;-62
2023/05/28 04:12:34;;;;;;;6.25;3.42;;;;;;;25.90;38.69;99804.31;4260710;33;33967;-62
2023/05/28 04:15:03;;;;;;;7.30;4.18;;;;;;;25.90;38.70;99798.84;4260301;33;34162;-63
2023/05/28 04:17:31;;;;;;;7.50;3.80;;;;;;;25.89;38.70;99797.19;4260448;33;34101;-63
2023/05/28 04:19:59;;;;;;;7.40;4.07;;;;;;;25.89;38.66;99795.28;4260386;33;33360;-61
2023/05/28 04:22:27;;;;;;;7.75;3.62;;;;;;;25.90;38.62;99807.06;4265032;33;34154;-62
2023/05/28 04:24:55;;;;;;;6.35;3.87;;;;;;;25.91;38.66;99805.97;4274603;33;33792;-63
2023/05/28 04:27:23;;;;;;;8.18;3.85;;;;;;;25.90;38.64;99807.06;4274466;33;34102;-63
2023/05/28 04:29:54;;;;;;;6.75;3.70;;;;;;;25.89;38.61;99805.41;4274711;33;33809;-62
2023/05/28 04:32:23;;;;;;;9.65;3.90;;;;;;;25.90;38.58;99805.16;4274678;33;33975;-62
2023/05/28 04:34:54;;;;;;;7.45;3.90;;;;;;;25.90;38.56;99807.88;4261627;33;34025;-62
2023/05/28 04:37:22;;;;;;;7.93;3.58;;;;;;;25.91;38.54;99800.50;4273740;33;34222;-63
2023/05/28 04:39:49;;;;;;;6.93;3.33;;;;;;;25.89;38.52;99806.22;4261577;33;33677;-63
2023/05/28 04:42:17;;;;;;;7.53;3.90;;;;;;;25.90;38.58;99804.31;4261666;33;33051;-63
2023/05/28 04:44:45;;;;;;;6.62;3.70;;;;;;;25.89;38.61;99802.66;4274410;33;33891;-63
2023/05/28 04:47:14;;;;;;;5.97;3.47;;;;;;;25.89;38.58;99799.94;4274743;33;34889;-62
2023/05/28 04:49:41;;;;;;;7.55;3.58;;;;;;;25.90;38.56;99801.59;4274653;33;33859;-62
2023/05/28 04:52:09;;;;;;;6.78;4.07;;;;;;;25.89;38.58;99799.94;4274173;33;33513;-62
2023/05/28 04:54:37;;;;;;;6.90;3.67;;;;;;;25.89;38.60;99808.13;4274404;33;34437;-63
2023/05/28 04:57:06;;;;;;;6.37;3.65;;;;;;;25.90;38.57;99809.78;4274565;33;34084;-60
2023/05/28 04:59:35;;;;;;;6.90;3.60;;;;;;;25.90;38.57;99812.53;4274741;33;33673;-63
2023/05/28 05:02:03;;;;;;;8.02;3.78;;;;;;;25.89;38.57;99808.13;4274682;33;34784;-62
2023/05/28 05:04:31;;;;;;;7.07;3.67;;;;;;;25.90;38.57;99812.53;4274084;33;33928;-63
2023/05/28 05:06:59;;;;;;;7.37;3.60;;;;;;;25.88;38.60;99810.03;4274389;33;35324;-63
2023/05/28 05:09:27;;;;;;;5.87;3.62;;;;;;;25.89;38.59;99810.87;4274503;33;33692;-63
2023/05/28 05:11:55;;;;;;;9.73;4.05;;;;;;;25.89;38.57;99811.69;4274216;33;33817;-64
2023/05/28 05:14:22;;;;;;;8.70;3.67;;;;;;;25.90;38.60;99815.25;4274381;33;34109;-62
2023/05/28 05:16:50;;;;;;;5.65;3.17;;;;;;;25.90;38.62;99818.00;4274278;33;34876;-62
2023/05/28 05:19:18;;;;;;;15.85;3.80;;;;;;;25.91;38.63;99816.91;4274118;33;33681;-62
2023/05/28 05:21:45;;;;;;;7.43;4.18;;;;;;;25.90;38.63;99815.25;4273689;33;33865;-63
2023/05/28 05:24:13;;;;;;;7.03;3.70;;;;;;;25.91;38.63;99811.44;4259150;33;33729;-62
2023/05/28 05:26:40;;;;;;;7.20;3.50;;;;;;;25.91;38.58;99814.16;4259858;33;34194;-62
2023/05/28 05:29:08;;;;;;;6.68;3.80;;;;;;;25.92;38.58;99815.81;4259845;33;33570;-63
2023/05/28 05:31:36;;;;;;;7.40;3.50;;;;;;;25.90;38.57;99813.34;4259942;33;34839;-61
2023/05/28 05:34:05;;;;;;;7.05;3.40;;;;;;;25.91;38.55;99814.16;4258820;33;34142;-63
2023/05/28 05:36:33;;;;;;;10.63;4.17;;;;;;;25.91;38.55;99812.25;4260252;33;34753;-61
2023/05/28 05:39:00;;;;;;;6.18;3.42;;;;;;;25.92;38.53;99815.81;4260148;33;33512;-63
2023/05/28 05:41:29;;;;;;;8.48;3.47;;;;;;;25.90;38.57;99807.88;4259561;33;33902;-63
2023/05/28 05:43:59;;;;;;;8.18;4.18;;;;;;;25.91;38.56;99805.97;4259736;33;33742;-62
2023/05/28 05:46:27;;;;;;;6.78;3.20;;;;;;;25.91;38.56;99808.72;4259804;33;33837;-62
2023/05/28 05:48:55;;;;;;;5.53;3.47;;;;;;;25.91;38.54;99801.34;4259826;33;33219;-59
2023/05/28 05:51:22;;;;;;;7.10;3.55;;;;;;;25.91;38.54;99797.78;4259799;33;33874;-63
2023/05/28 05:53:50;;;;;;;6.93;3.55;;;;;;;25.91;38.54;99803.25;4259517;33;33884;-62
2023/05/28 05:56:17;;;;;;;17.17;3.85;;;;;;;25.91;38.54;99804.06;4259679;33;34220;-59
2023/05/28 05:58:45;;;;;;;7.55;3.78;;;;;;;25.93;38.55;99806.56;4259833;33;33603;-58
2023/05/28 06:01:17;;;;;;;7.55;3.28;;;;;;;25.92;38.54;99805.72;4259905;33;33957;-62
2023/05/28 06:03:44;;;;;;;6.62;3.90;;;;;;;25.92;38.53;99804.88;4258365;33;33682;-58
2023/05/28 06:06:13;;;;;;;9.55;3.40;;;;;;;25.94;38.50;99808.22;4246986;33;34202;-59
2023/05/28 06:08:41;;;;;;;6.50;3.62;;;;;;;25.93;38.52;99810.13;4258467;33;34330;-60
2023/05/28 06:11:09;;;;;;;5.70;2.92;;;;;;;25.94;38.52;99816.44;4259634;33;33849;-62
2023/05/28 06:13:37;;;;;;;8.05;3.60;;;;;;;25.94;38.52;99819.16;4259701;33;33555;-60
2023/05/28 06:16:06;;;;;;;6.68;2.92;;;;;;;25.94;38.49;99819.16;4259325;33;34624;-58
2023/05/28 06:18:34;;;;;;;6.53;3.33;;;;;;;25.94;38.47;99821.91;4259405;33;34302;-58
2023/05/28 06:21:03;;;;;;;9.00;3.85;;;;;;;25.95;38.44;99815.34;4259614;33;34487;-63
2023/05/28 06:23:31;;;;;;;8.27;3.62;;;;;;;25.94;38.27;99813.69;4259611;33;34035;-65
2023/05/28 06:25:59;;;;;;;6.87;3.53;;;;;;;25.94;38.24;99821.91;4272639;33;35375;-64
2023/05/28 06:28:27;;;;;;;6.85;3.20;;;;;;;25.93;38.24;99823.81;4272501;33;34360;-64
2023/05/28 06:30:55;;;;;;;7.12;3.42;;;;;;;25.94;38.22;99817.25;4258759;33;33969;-63
2023/05/28 06:33:23;;;;;;;7.78;3.75;;;;;;;25.95;38.23;99820.81;4258320;33;35263;-64
2023/05/28 06:35:51;;;;;;;6.12;3.28;;;;;;;25.95;38.20;99826.28;4258323;33;34620;-64
2023/05/28 06:38:19;;;;;;;8.35;3.70;;;;;;;25.95;38.22;99826.28;4250706;33;33296;-64
2023/05/28 06:40:46;;;;;;;7.45;3.75;;;;;;;25.94;38.23;99822.72;4243704;33;34385;-63
2023/05/28 06:43:14;;;;;;;9.38;3.60;;;;;;;25.95;38.25;99826.28;4258963;33;34994;-64
2023/05/28 06:45:42;;;;;;;6.15;3.33;;;;;;;25.95;38.24;99826.28;4258360;33;34081;-64
2023/05/28 06:48:10;;;;;;;7.40;3.62;;;;;;;25.95;38.24;99826.28;4258878;33;33573;-64
2023/05/28 06:50:37;;;;;;;7.80;3.17;;;;;;;25.95;38.28;99837.22;4258461;33;33957;-64
2023/05/28 06:53:05;;;;;;;8.55;3.58;;;;;;;25.97;38.28;99828.78;4258417;33;34840;-65
2023/05/28 06:55:33;;;;;;;6.70;3.97;;;;;;;25.95;38.29;99832.59;4258624;33;35314;-64
2023/05/28 06:58:05;;;;;;;7.70;4.07;;;;;;;25.95;38.30;99831.75;4230480;33;33343;-64
2023/05/28 07:00:33;;;;;;;6.55;3.72;;;;;;;25.97;38.29;99834.25;4231853;33;33699;-64
2023/05/28 07:03:01;;;;;;;7.03;3.72;;;;;;;25.95;38.29;99824.38;4232375;33;33664;-63
2023/05/28 07:05:30;;;;;;;6.12;3.50;;;;;;;25.98;38.29;99833.19;4232040;33;34345;-64
2023/05/28 07:07:59;;;;;;;6.78;3.53;;;;;;;25.97;38.32;99832.34;4242390;33;32583;-64
2023/05/28 07:10:27;;;;;;;5.28;3.20;;;;;;;25.97;38.32;99826.88;4228436;33;34703;-64
2023/05/28 07:12:55;;;;;;;7.32;3.53;;;;;;;25.99;38.29;99827.47;4225029;33;34699;-64
2023/05/28 07:15:23;;;;;;;6.20;3.65;;;;;;;25.99;38.30;99832.09;4225242;33;34078;-64
2023/05/28 07:17:50;;;;;;;7.57;3.45;;;;;;;25.98;38.31;99825.81;4225395;33;34389;-67
2023/05/28 07:20:18;;;;;;;8.52;4.12;;;;;;;26.00;38.28;99828.28;4232268;33;33877;-67
2023/05/28 07:22:47;;;;;;;9.27;3.33;;;;;;;25.99;38.29;99826.63;4232797;33;33861;-67
2023/05/28 07:25:14;;;;;;;7.18;3.35;;;;;;;25.98;38.17;99830.47;4232533;33;34248;-66
2023/05/28 07:27:42;;;;;;;8.77;3.28;;;;;;;25.97;38.04;99835.06;4243174;33;33059;-67
2023/05/28 07:30:10;;;;;;;6.87;3.30;;;;;;;25.96;38.01;99833.41;4232662;33;33567;-67
2023/05/28 07:32:38;;;;;;;7.47;2.92;;;;;;;25.94;38.01;99833.66;4232491;33;33974;-67
2023/05/28 07:35:06;;;;;;;6.10;3.20;;;;;;;25.94;37.90;99835.56;4232676;33;34751;-67
2023/05/28 07:37:35;;;;;;;7.60;3.35;;;;;;;25.94;37.91;99828.19;4232435;33;33548;-67
2023/05/28 07:40:05;;;;;;;10.00;4.40;;;;;;;25.94;37.94;99821.91;4232772;33;33422;-66
2023/05/28 07:42:32;;;;;;;9.90;4.28;;;;;;;25.94;37.88;99824.63;4231960;33;34196;-67
2023/05/28 07:45:00;;;;;;;8.70;3.83;;;;;;;25.93;37.88;99822.97;4232321;33;34479;-67
2023/05/28 07:47:28;;;;;;;9.88;4.30;;;;;;;25.91;37.70;99820.47;4232466;33;34436;-67
2023/05/28 07:49:57;;;;;;;7.12;4.15;;;;;;;25.91;37.77;99825.94;4232409;33;34207;-67
2023/05/28 07:52:29;;;;;;;9.20;4.45;;;;;;;25.93;37.63;99822.97;4232533;33;33914;-67
2023/05/28 07:54:58;;;;;;;9.40;4.95;;;;;;;25.90;37.31;99824.28;4232384;33;34881;-67
2023/05/28 07:57:26;;;;;;;9.52;4.65;;;;;;;25.90;36.98;99815.25;4241783;33;33198;-67
2023/05/28 07:59:54;;;;;;;10.25;4.70;;;;;;;25.89;36.67;99810.87;4246632;33;33209;-67
2023/05/28 08:02:22;;;;;;;10.15;5.05;;;;;;;25.88;36.73;99811.91;4246501;33;34003;-67
2023/05/28 08:04:51;;;;;;;8.77;5.15;;;;;;;25.89;36.92;99817.16;4246310;33;33876;-67
2023/05/28 08:07:19;;;;;;;9.70;5.22;;;;;;;25.88;36.78;99818.25;4246255;33;33552;-67
2023/05/28 08:09:47;;;;;;;8.68;4.60;;;;;;;25.87;36.96;99816.56;4245895;33;33912;-68
2023/05/28 08:12:17;;;;;;;9.65;4.68;;;;;;;25.87;36.88;99818.47;4245834;33;33869;-67
2023/05/28 08:14:45;;;;;;;8.63;5.00;;;;;;;25.88;36.75;99817.37;4246646;33;33780;-67
2023/05/28 08:17:12;;;;;;;10.05;5.12;;;;;;;25.87;36.69;99811.09;4246456;33;34518;-67
2023/05/28 08:19:42;;;;;;;10.88;4.93;;;;;;;25.88;36.76;99812.78;4246233;33;33966;-67
2023/05/28 08:22:20;;;;;;;11.98;5.05;;;;;;;25.87;36.81;99813.00;4259423;33;33876;-67
2023/05/28 08:24:48;;;;;;;9.40;5.70;;;;;;;25.89;36.82;99808.13;4260520;33;34022;-67
2023/05/28 08:27:15;;;;;;;10.48;4.97;;;;;;;25.87;36.81;99808.34;4260297;33;33950;-67
2023/05/28 08:29:43;;;;;;;7.95;4.95;;;;;;;25.87;36.91;99808.34;4260009;33;33671;-66
2023/05/28 08:32:11;;;;;;;8.88;5.10;;;;;;;25.89;36.78;99810.87;4260280;33;34010;-66
2023/05/28 08:34:39;;;;;;;12.13;5.25;;;;;;;25.88;36.83;99799.09;4260181;33;34088;-66
2023/05/28 08:37:07;;;;;;;12.75;5.40;;;;;;;25.89;36.54;99803.50;4260307;33;34366;-66
2023/05/28 08:39:36;;;;;;;11.30;5.17;;;;;;;25.90;36.32;99798.84;4260235;33;33614;-66
2023/05/28 08:42:03;;;;;;;8.35;4.57;;;;;;;25.90;36.44;99798.84;4260200;33;33871;-66
2023/05/28 08:44:31;;;;;;;7.45;4.15;;;;;;;25.89;36.38;99794.47;4260585;33;34103;-66
2023/05/28 08:46:59;;;;;;;10.38;4.95;;;;;;;25.89;36.27;99798.03;4247537;33;33555;-66
2023/05/28 08:49:32;;;;;;;8.55;4.55;;;;;;;25.89;36.24;99794.47;4246941;33;33838;-66
2023/05/28 08:52:04;;;;;;;7.75;4.20;;;;;;;25.90;36.39;99790.66;4258754;33;33724;-66
2023/05/28 08:54:32;;;;;;;9.18;4.50;;;;;;;25.90;36.31;99796.13;4247637;33;34134;-66
2023/05/28 08:57:00;;;;;;;8.88;5.03;;;;;;;25.89;36.25;99795.28;4256556;33;34355;-66
2023/05/28 08:59:28;;;;;;;8.30;4.82;;;;;;;25.91;35.87;99781.38;4246075;33;34553;-66
2023/05/28 09:01:55;;;;;;;9.93;4.25;;;;;;;25.91;35.61;99781.38;4256389;33;34808;-67
2023/05/28 09:04:23;;;;;;;7.90;4.00;;;;;;;25.90;35.71;99782.44;4256468;33;34550;-66
2023/05/28 09:06:51;;;;;;;8.68;4.57;;;;;;;25.91;35.48;99781.38;4256252;33;34072;-66
2023/05/28 09:09:20;;;;;;;8.70;4.45;;;;;;;25.90;35.43;99777.81;4256270;33;34583;-66
2023/05/28 09:11:48;;;;;;;9.07;4.22;;;;;;;25.90;35.01;99779.72;4256178;33;34884;-66
2023/05/28 09:14:17;;;;;;;9.18;4.28;;;;;;;25.90;34.98;99775.06;4246236;33;34736;-66
2023/05/28 09:16:45;;;;;;;9.20;3.87;;;;;;;25.89;34.38;99773.41;4256342;33;34390;-66
2023/05/28 09:19:16;;;;;;;8.70;4.20;;;;;;;25.89;34.65;99770.69;4256158;33;34657;-66
2023/05/28 09:21:57;;;;;;;8.27;4.12;;;;;;;25.90;34.82;99776.97;4245325;33;34314;-66
2023/05/28 09:24:26;;;;;;;7.07;4.00;;;;;;;25.90;34.97;99769.59;4242248;33;33739;-66
2023/05/28 09:26:58;;;;;;;9.25;4.60;;;;;;;25.88;35.04;99769.03;4242182;33;32112;-67
2023/05/28 09:29:26;;;;;;;10.32;4.57;;;;;;;25.89;35.14;99772.59;4242345;33;35165;-66
2023/05/28 09:31:58;;;;;;;7.72;4.45;;;;;;;25.89;35.31;99764.41;4242136;33;33990;-66
2023/05/28 09:34:31;;;;;;;7.25;4.30;;;;;;;25.89;35.45;99769.88;4231683;33;34244;-66
2023/05/28 09:37:05;;;;;;;8.20;4.07;;;;;;;25.90;35.54;99771.50;4231827;33;33394;-66
2023/05/28 09:39:33;;;;;;;6.93;4.22;;;;;;;25.89;35.35;99767.97;4241998;33;34832;-66
2023/05/28 09:42:09;;;;;;;10.07;4.82;;;;;;;25.90;35.49;99757.84;4231586;33;34043;-66
2023/05/28 09:44:38;;;;;;;6.80;4.15;;;;;;;25.89;35.32;99759.75;4230340;33;34341;-66
2023/05/28 09:47:15;;;;;;;9.97;4.53;;;;;;;25.90;35.37;99749.66;4231711;33;33508;-66
2023/05/28 09:49:44;;;;;;;7.53;4.18;;;;;;;25.93;35.44;99760.94;4231584;33;33429;-66
2023/05/28 09:52:20;;;;;;;9.07;4.50;;;;;;;25.92;35.10;99752.94;4241901;33;34006;-66
2023/05/28 09:54:52;;;;;;;9.05;4.45;;;;;;;25.93;34.81;99754.63;4230393;33;33326;-66
2023/05/28 09:57:30;;;;;;;7.28;3.90;;;;;;;25.91;34.63;99754.03;4251036;33;33674;-66
2023/05/28 09:59:59;;;;;;;8.40;3.83;;;;;;;25.92;34.53;99750.22;4258506;33;34619;-66
2023/05/28 10:02:26;;;;;;;9.45;4.87;;;;;;;25.91;34.50;99748.56;4246717;33;35429;-66
2023/05/28 10:04:54;;;;;;;9.10;4.18;;;;;;;25.93;34.65;99754.63;4259651;33;34678;-66
2023/05/28 10:07:24;;;;;;;9.68;4.40;;;;;;;25.94;34.62;99754.38;4246813;33;34401;-66
2023/05/28 10:09:53;;;;;;;6.90;3.90;;;;;;;25.92;34.53;99742.84;4246838;33;32985;-66
2023/05/28 10:12:26;;;;;;;9.32;4.00;;;;;;;25.94;34.69;99745.34;4246747;33;34839;-66
2023/05/28 10:14:54;;;;;;;8.23;4.12;;;;;;;25.94;34.67;99743.44;4258287;33;34788;-66
2023/05/28 10:17:22;;;;;;;8.52;4.47;;;;;;;25.95;35.04;99736.91;4245975;33;33564;-66
2023/05/28 10:19:49;;;;;;;10.63;4.30;;;;;;;25.96;35.15;99740.47;4246532;33;33959;-66
2023/05/28 10:22:17;;;;;;;10.10;4.22;;;;;;;25.97;35.36;99733.91;4250075;33;33863;-66
2023/05/28 10:24:46;;;;;;;12.50;4.70;;;;;;;25.99;35.45;99736.41;4260474;33;33833;-66
2023/05/28 10:27:18;;;;;;;10.18;4.28;;;;;;;25.96;35.29;99737.72;4260691;33;33600;-66
2023/05/28 10:29:47;;;;;;;9.30;4.30;;;;;;;25.99;35.28;99733.69;4261018;33;33967;-66
2023/05/28 10:32:15;;;;;;;9.13;4.82;;;;;;;25.98;35.40;99730.12;4273459;33;34780;-66
2023/05/28 10:34:43;;;;;;;8.52;4.20;;;;;;;26.00;34.59;99724.41;4249871;33;34771;-66
2023/05/28 10:37:12;;;;;;;8.25;4.35;;;;;;;26.01;34.09;99717.84;4262262;33;33484;-66
2023/05/28 10:39:45;;;;;;;9.20;4.53;;;;;;;26.00;33.17;99716.19;4275348;33;33652;-66
2023/05/28 10:42:18;;;;;;;10.88;4.45;;;;;;;26.00;33.14;99714.28;4259079;33;33251;-66
2023/05/28 10:45:08;;;;;;;10.65;4.53;;;;;;;26.01;33.10;99718.69;4245406;33;34100;-66
2023/05/28 10:47:36;;;;;;;9.43;4.37;;;;;;;26.01;32.37;99726.06;4246500;33;33758;-66
2023/05/28 10:50:14;;;;;;;9.75;4.47;;;;;;;26.02;32.33;99717.63;4246597;33;33435;-66
2023/05/28 10:53:05;;;;;;;8.25;3.97;;;;;;;26.03;32.36;99724.75;4246629;33;34454;-66
2023/05/28 10:55:52;;;;;;;7.90;3.75;;;;;;;26.05;32.42;99711.66;4246445;33;34003;-67
2023/05/28 10:58:36;;;;;;;9.93;4.10;;;;;;;26.03;32.59;99713.81;4245287;33;33524;-66
2023/05/28 11:01:07;;;;;;;9.73;4.37;;;;;;;26.07;32.50;99714.97;4233924;33;33928;-66
2023/05/28 11:03:51;;;;;;;7.20;3.95;;;;;;;26.04;32.66;99706.44;4246507;33;34826;-66
2023/05/28 11:06:19;;;;;;;8.07;3.90;;;;;;;26.08;33.20;99707.59;4245462;33;34241;-67
2023/05/28 11:08:48;;;;;;;8.15;4.43;;;;;;;26.06;32.93;99702.38;4245378;33;34005;-67
2023/05/28 11:11:16;;;;;;;8.07;4.40;;;;;;;26.06;33.39;99696.91;4233658;33;34716;-67
2023/05/28 11:13:45;;;;;;;9.57;4.30;;;;;;;26.08;33.66;99689.28;4233896;33;34867;-66
2023/05/28 11:16:18;;;;;;;9.15;4.15;;;;;;;26.12;33.10;99700.56;4245198;33;34784;-67
2023/05/28 11:19:02;;;;;;;9.20;4.45;;;;;;;26.12;32.81;99690.47;4233855;33;33677;-67
2023/05/28 11:21:32;;;;;;;10.93;4.80;;;;;;;26.18;31.84;99694.09;4245015;33;33686;-67
2023/05/28 11:24:03;;;;;;;7.00;4.00;;;;;;;26.13;31.61;99688.56;4260758;33;33994;-67
2023/05/28 11:26:32;;;;;;;7.05;4.22;;;;;;;26.12;31.92;99686.91;4274790;33;34136;-67
2023/05/28 11:29:00;;;;;;;7.43;4.37;;;;;;;26.13;32.10;99685.81;4275095;33;33377;-67
2023/05/28 11:31:29;;;;;;;8.83;4.10;;;;;;;26.13;32.19;99677.62;4261916;33;34536;-68
2023/05/28 11:33:57;;;;;;;10.48;4.72;;;;;;;26.13;32.46;99675.69;4274707;33;33970;-68
2023/05/28 11:36:24;;;;;;;8.82;4.07;;;;;;;26.13;32.69;99667.50;4261834;33;34230;-67
2023/05/28 11:39:11;;;;;;;7.47;4.10;;;;;;;26.13;32.57;99670.22;4274788;33;34270;-67
2023/05/28 11:41:39;;;;;;;10.43;4.45;;;;;;;26.14;32.19;99663.69;4262177;33;33933;-67